sensor_id;sensor_type;location;lat;lon;timestamp;temperature;humidity
76967;DHT22;65904;52.278;20.972;2023-05-10T00:00:02;8.60;99.90
76967;DHT22;65904;52.278;20.972;2023-05-10T00:03:09;8.60;99.90
76967;DHT22;65904;52.278;20.972;2023-05-10T00:05:56;8.60;99.90
76967;DHT22;65904;52.278;20.972;2023-05-10T00:08:42;8.50;99.90
76967;DHT22;65904;52.278;20.972;2023-05-10T00:11:28;8.50;99.90
76967;DHT22;65904;52.278;20.972;2023-05-10T00:14:14;8.50;99.90
76967;DHT22;65904;52.278;20.972;2023-05-10T00:17:01;8.50;99.90
76967;DHT22;65904;52.278;20.972;2023-05-10T00:19:47;8.40;99.90
76967;DHT22;65904;52.278;20.972;2023-05-10T00:22:35;8.40;99.90
76967;DHT22;65904;52.278;20.972;2023-05-10T00:25:22;8.40;99.90
76967;DHT22;65904;52.278;20.972;2023-05-10T00:28:08;8.40;99.90
76967;DHT22;65904;52.278;20.972;2023-05-10T00:30:56;8.30;99.90
76967;DHT22;65904;52.278;20.972;2023-05-10T00:33:42;8.30;99.90
76967;DHT22;65904;52.278;20.972;2023-05-10T00:36:28;8.40;99.90
76967;DHT22;65904;52.278;20.972;2023-05-10T00:39:35;8.30;99.90
76967;DHT22;65904;52.278;20.972;2023-05-10T00:42:22;8.20;99.90
76967;DHT22;65904;52.278;20.972;2023-05-10T00:45:10;8.20;99.90
76967;DHT22;65904;52.278;20.972;2023-05-10T00:47:57;8.30;99.90
76967;DHT22;65904;52.278;20.972;2023-05-10T00:50:44;8.30;99.90
76967;DHT22;65904;52.278;20.972;2023-05-10T00:53:31;8.30;99.90
76967;DHT22;65904;52.278;20.972;2023-05-10T00:56:19;8.30;99.90
76967;DHT22;65904;52.278;20.972;2023-05-10T00:59:08;8.20;99.90
76967;DHT22;65904;52.278;20.972;2023-05-10T01:01:54;8.20;99.90
76967;DHT22;65904;52.278;20.972;2023-05-10T01:04:40;8.20;99.90
76967;DHT22;65904;52.278;20.972;2023-05-10T01:07:27;8.20;99.90
76967;DHT22;65904;52.278;20.972;2023-05-10T01:10:13;8.10;99.90
76967;DHT22;65904;52.278;20.972;2023-05-10T01:13:02;8.10;99.90
76967;DHT22;65904;52.278;20.972;2023-05-10T01:15:49;8.10;99.90
76967;DHT22;65904;52.278;20.972;2023-05-10T01:18:40;8.00;99.90
76967;DHT22;65904;52.278;20.972;2023-05-10T01:21:31;8.10;99.90
76967;DHT22;65904;52.278;20.972;2023-05-10T01:24:57;8.00;99.90
76967;DHT22;65904;52.278;20.972;2023-05-10T01:28:14;8.00;99.90
76967;DHT22;65904;52.278;20.972;2023-05-10T01:31:08;7.90;99.90
76967;DHT22;65904;52.278;20.972;2023-05-10T01:34:02;7.90;99.90
76967;DHT22;65904;52.278;20.972;2023-05-10T01:36:56;7.90;99.90
76967;DHT22;65904;52.278;20.972;2023-05-10T01:39:47;7.90;99.90
76967;DHT22;65904;52.278;20.972;2023-05-10T01:42:42;7.90;99.90
76967;DHT22;65904;52.278;20.972;2023-05-10T01:45:37;7.90;99.90
76967;DHT22;65904;52.278;20.972;2023-05-10T01:48:26;7.90;99.90
76967;DHT22;65904;52.278;20.972;2023-05-10T01:51:19;7.80;99.90
76967;DHT22;65904;52.278;20.972;2023-05-10T01:54:08;7.80;99.90
76967;DHT22;65904;52.278;20.972;2023-05-10T01:56:59;7.80;99.90
76967;DHT22;65904;52.278;20.972;2023-05-10T01:59:50;7.80;99.90
76967;DHT22;65904;52.278;20.972;2023-05-10T02:02:39;7.80;99.90
76967;DHT22;65904;52.278;20.972;2023-05-10T02:05:29;7.70;99.90
76967;DHT22;65904;52.278;20.972;2023-05-10T02:08:21;7.70;99.90
76967;DHT22;65904;52.278;20.972;2023-05-10T02:11:08;7.70;99.90
76967;DHT22;65904;52.278;20.972;2023-05-10T02:13:57;7.60;99.90
76967;DHT22;65904;52.278;20.972;2023-05-10T02:16:48;7.60;99.90
76967;DHT22;65904;52.278;20.972;2023-05-10T02:19:38;7.50;99.90
76967;DHT22;65904;52.278;20.972;2023-05-10T02:22:25;7.50;99.90
76967;DHT22;65904;52.278;20.972;2023-05-10T02:25:13;7.50;99.90
76967;DHT22;65904;52.278;20.972;2023-05-10T02:28:02;7.50;99.90
76967;DHT22;65904;52.278;20.972;2023-05-10T02:30:49;7.50;99.90
76967;DHT22;65904;52.278;20.972;2023-05-10T02:33:38;7.40;99.90
76967;DHT22;65904;52.278;20.972;2023-05-10T02:36:26;7.40;99.90
76967;DHT22;65904;52.278;20.972;2023-05-10T02:39:14;7.30;99.90
76967;DHT22;65904;52.278;20.972;2023-05-10T02:42:03;7.20;99.90
76967;DHT22;65904;52.278;20.972;2023-05-10T02:44:53;7.30;99.90
76967;DHT22;65904;52.278;20.972;2023-05-10T02:47:42;7.20;99.90
76967;DHT22;65904;52.278;20.972;2023-05-10T02:50:30;7.20;99.90
76967;DHT22;65904;52.278;20.972;2023-05-10T02:53:23;7.20;99.90
76967;DHT22;65904;52.278;20.972;2023-05-10T02:56:14;7.20;99.90
76967;DHT22;65904;52.278;20.972;2023-05-10T02:59:03;7.20;99.90
76967;DHT22;65904;52.278;20.972;2023-05-10T03:01:49;7.20;99.90
76967;DHT22;65904;52.278;20.972;2023-05-10T03:04:36;7.20;99.90
76967;DHT22;65904;52.278;20.972;2023-05-10T03:07:23;7.10;99.90
76967;DHT22;65904;52.278;20.972;2023-05-10T03:10:09;7.10;99.90
76967;DHT22;65904;52.278;20.972;2023-05-10T03:13:07;7.10;99.90
76967;DHT22;65904;52.278;20.972;2023-05-10T03:16:00;7.10;99.90
76967;DHT22;65904;52.278;20.972;2023-05-10T03:18:55;7.10;99.90
76967;DHT22;65904;52.278;20.972;2023-05-10T03:21:47;7.10;99.90
76967;DHT22;65904;52.278;20.972;2023-05-10T03:24:36;7.10;99.90
76967;DHT22;65904;52.278;20.972;2023-05-10T03:27:26;7.10;99.90
76967;DHT22;65904;52.278;20.972;2023-05-10T03:30:14;7.20;99.90
76967;DHT22;65904;52.278;20.972;2023-05-10T03:33:05;7.20;99.90
76967;DHT22;65904;52.278;20.972;2023-05-10T03:35:54;7.20;99.90
76967;DHT22;65904;52.278;20.972;2023-05-10T03:38:41;7.30;99.90
76967;DHT22;65904;52.278;20.972;2023-05-10T03:41:27;7.30;99.90
76967;DHT22;65904;52.278;20.972;2023-05-10T03:44:13;7.40;99.90
76967;DHT22;65904;52.278;20.972;2023-05-10T03:46:59;7.50;99.90
76967;DHT22;65904;52.278;20.972;2023-05-10T03:49:46;7.60;99.90
76967;DHT22;65904;52.278;20.972;2023-05-10T03:52:33;7.60;99.90
76967;DHT22;65904;52.278;20.972;2023-05-10T03:55:19;7.60;99.90
76967;DHT22;65904;52.278;20.972;2023-05-10T03:58:05;7.70;99.90
76967;DHT22;65904;52.278;20.972;2023-05-10T04:00:52;7.70;99.90
76967;DHT22;65904;52.278;20.972;2023-05-10T04:03:39;7.70;99.90
76967;DHT22;65904;52.278;20.972;2023-05-10T04:06:26;7.80;99.90
76967;DHT22;65904;52.278;20.972;2023-05-10T04:09:14;7.80;99.90
76967;DHT22;65904;52.278;20.972;2023-05-10T04:12:01;7.90;99.90
76967;DHT22;65904;52.278;20.972;2023-05-10T04:14:48;8.00;99.90
76967;DHT22;65904;52.278;20.972;2023-05-10T04:17:34;8.00;99.90
76967;DHT22;65904;52.278;20.972;2023-05-10T04:20:20;8.00;99.90
76967;DHT22;65904;52.278;20.972;2023-05-10T04:23:08;8.10;99.90
76967;DHT22;65904;52.278;20.972;2023-05-10T04:25:59;8.10;99.90
76967;DHT22;65904;52.278;20.972;2023-05-10T04:28:45;8.20;99.90
76967;DHT22;65904;52.278;20.972;2023-05-10T04:31:31;8.20;99.90
76967;DHT22;65904;52.278;20.972;2023-05-10T04:34:20;8.30;99.90
76967;DHT22;65904;52.278;20.972;2023-05-10T04:37:06;8.40;99.90
76967;DHT22;65904;52.278;20.972;2023-05-10T04:39:54;8.50;99.90
76967;DHT22;65904;52.278;20.972;2023-05-10T04:42:42;8.60;99.90
76967;DHT22;65904;52.278;20.972;2023-05-10T04:45:28;8.60;99.90
76967;DHT22;65904;52.278;20.972;2023-05-10T04:48:15;8.60;99.90
76967;DHT22;65904;52.278;20.972;2023-05-10T04:51:01;8.70;99.90
76967;DHT22;65904;52.278;20.972;2023-05-10T04:53:48;8.80;99.90
76967;DHT22;65904;52.278;20.972;2023-05-10T04:56:36;9.00;99.90
76967;DHT22;65904;52.278;20.972;2023-05-10T04:59:22;9.00;99.90
76967;DHT22;65904;52.278;20.972;2023-05-10T05:02:08;9.00;99.90
76967;DHT22;65904;52.278;20.972;2023-05-10T05:04:56;9.10;99.90
76967;DHT22;65904;52.278;20.972;2023-05-10T05:07:42;9.20;99.90
76967;DHT22;65904;52.278;20.972;2023-05-10T05:10:28;9.20;99.90
76967;DHT22;65904;52.278;20.972;2023-05-10T05:13:16;9.30;99.90
76967;DHT22;65904;52.278;20.972;2023-05-10T05:16:02;9.30;99.90
76967;DHT22;65904;52.278;20.972;2023-05-10T05:18:49;9.40;99.90
76967;DHT22;65904;52.278;20.972;2023-05-10T05:21:35;9.40;99.90
76967;DHT22;65904;52.278;20.972;2023-05-10T05:24:21;9.50;99.90
76967;DHT22;65904;52.278;20.972;2023-05-10T05:27:07;9.60;99.90
76967;DHT22;65904;52.278;20.972;2023-05-10T05:29:54;9.80;99.70
76967;DHT22;65904;52.278;20.972;2023-05-10T05:32:41;9.90;99.90
76967;DHT22;65904;52.278;20.972;2023-05-10T05:35:27;9.90;99.90
76967;DHT22;65904;52.278;20.972;2023-05-10T05:38:13;10.00;99.90
76967;DHT22;65904;52.278;20.972;2023-05-10T05:40:59;10.10;99.60
76967;DHT22;65904;52.278;20.972;2023-05-10T05:43:46;10.20;99.40
76967;DHT22;65904;52.278;20.972;2023-05-10T05:46:33;10.40;99.30
76967;DHT22;65904;52.278;20.972;2023-05-10T05:49:20;10.50;99.50
76967;DHT22;65904;52.278;20.972;2023-05-10T05:52:06;10.60;99.70
76967;DHT22;65904;52.278;20.972;2023-05-10T05:54:52;10.80;98.30
76967;DHT22;65904;52.278;20.972;2023-05-10T05:57:38;11.00;97.80
76967;DHT22;65904;52.278;20.972;2023-05-10T06:00:25;11.10;98.60
76967;DHT22;65904;52.278;20.972;2023-05-10T06:03:12;11.20;97.80
76967;DHT22;65904;52.278;20.972;2023-05-10T06:05:59;11.30;97.80
76967;DHT22;65904;52.278;20.972;2023-05-10T06:08:45;11.30;96.90
76967;DHT22;65904;52.278;20.972;2023-05-10T06:11:31;11.40;96.20
76967;DHT22;65904;52.278;20.972;2023-05-10T06:14:20;11.60;97.60
76967;DHT22;65904;52.278;20.972;2023-05-10T06:17:06;11.70;96.30
76967;DHT22;65904;52.278;20.972;2023-05-10T06:19:53;11.90;94.70
76967;DHT22;65904;52.278;20.972;2023-05-10T06:22:39;12.00;95.70
76967;DHT22;65904;52.278;20.972;2023-05-10T06:25:26;12.10;94.80
76967;DHT22;65904;52.278;20.972;2023-05-10T06:28:12;12.20;94.20
76967;DHT22;65904;52.278;20.972;2023-05-10T06:30:58;12.30;93.60
76967;DHT22;65904;52.278;20.972;2023-05-10T06:33:44;12.50;93.90
76967;DHT22;65904;52.278;20.972;2023-05-10T06:36:32;12.60;93.20
76967;DHT22;65904;52.278;20.972;2023-05-10T06:39:18;12.70;93.40
76967;DHT22;65904;52.278;20.972;2023-05-10T06:42:04;12.80;93.20
76967;DHT22;65904;52.278;20.972;2023-05-10T06:44:51;12.90;92.80
76967;DHT22;65904;52.278;20.972;2023-05-10T06:47:37;13.00;91.30
76967;DHT22;65904;52.278;20.972;2023-05-10T06:50:23;13.10;92.40
76967;DHT22;65904;52.278;20.972;2023-05-10T06:53:11;13.10;91.40
76967;DHT22;65904;52.278;20.972;2023-05-10T06:55:57;13.20;91.10
76967;DHT22;65904;52.278;20.972;2023-05-10T06:58:43;13.30;90.50
76967;DHT22;65904;52.278;20.972;2023-05-10T07:01:29;13.40;90.30
76967;DHT22;65904;52.278;20.972;2023-05-10T07:04:15;13.50;89.30
76967;DHT22;65904;52.278;20.972;2023-05-10T07:07:02;13.60;91.30
76967;DHT22;65904;52.278;20.972;2023-05-10T07:09:49;13.80;87.70
76967;DHT22;65904;52.278;20.972;2023-05-10T07:12:36;13.90;84.50
76967;DHT22;65904;52.278;20.972;2023-05-10T07:15:23;14.00;87.10
76967;DHT22;65904;52.278;20.972;2023-05-10T07:18:09;14.10;85.80
76967;DHT22;65904;52.278;20.972;2023-05-10T07:20:55;14.20;84.30
76967;DHT22;65904;52.278;20.972;2023-05-10T07:23:42;14.30;83.30
76967;DHT22;65904;52.278;20.972;2023-05-10T07:26:30;14.50;74.50
76967;DHT22;65904;52.278;20.972;2023-05-10T07:29:16;14.60;71.40
76967;DHT22;65904;52.278;20.972;2023-05-10T07:32:02;14.50;72.60
76967;DHT22;65904;52.278;20.972;2023-05-10T07:34:48;14.60;71.00
76967;DHT22;65904;52.278;20.972;2023-05-10T07:37:34;14.80;71.80
76967;DHT22;65904;52.278;20.972;2023-05-10T07:40:20;14.80;66.40
76967;DHT22;65904;52.278;20.972;2023-05-10T07:43:08;14.70;65.70
76967;DHT22;65904;52.278;20.972;2023-05-10T07:45:54;14.80;63.50
76967;DHT22;65904;52.278;20.972;2023-05-10T07:48:42;14.80;60.20
76967;DHT22;65904;52.278;20.972;2023-05-10T07:51:28;14.90;61.40
76967;DHT22;65904;52.278;20.972;2023-05-10T07:54:14;14.90;59.50
76967;DHT22;65904;52.278;20.972;2023-05-10T07:57:01;15.00;53.90
76967;DHT22;65904;52.278;20.972;2023-05-10T07:59:48;15.10;54.00
76967;DHT22;65904;52.278;20.972;2023-05-10T08:02:34;15.20;53.40
76967;DHT22;65904;52.278;20.972;2023-05-10T08:05:21;15.10;52.70
76967;DHT22;65904;52.278;20.972;2023-05-10T08:08:07;15.00;51.30
76967;DHT22;65904;52.278;20.972;2023-05-10T08:10:53;15.10;52.10
76967;DHT22;65904;52.278;20.972;2023-05-10T08:13:39;15.20;53.40
76967;DHT22;65904;52.278;20.972;2023-05-10T08:16:27;15.50;54.40
76967;DHT22;65904;52.278;20.972;2023-05-10T08:19:13;15.60;54.20
76967;DHT22;65904;52.278;20.972;2023-05-10T08:22:03;15.80;51.10
76967;DHT22;65904;52.278;20.972;2023-05-10T08:24:49;16.00;51.60
76967;DHT22;65904;52.278;20.972;2023-05-10T08:27:36;16.10;48.40
76967;DHT22;65904;52.278;20.972;2023-05-10T08:30:22;16.10;51.30
76967;DHT22;65904;52.278;20.972;2023-05-10T08:33:10;16.10;48.10
76967;DHT22;65904;52.278;20.972;2023-05-10T08:35:55;16.00;47.50
76967;DHT22;65904;52.278;20.972;2023-05-10T08:38:42;15.90;46.70
76967;DHT22;65904;52.278;20.972;2023-05-10T08:41:28;16.00;49.30
76967;DHT22;65904;52.278;20.972;2023-05-10T08:44:15;16.20;47.80
76967;DHT22;65904;52.278;20.972;2023-05-10T08:47:04;16.40;49.40
76967;DHT22;65904;52.278;20.972;2023-05-10T08:49:52;16.60;48.00
76967;DHT22;65904;52.278;20.972;2023-05-10T08:52:39;16.80;48.30
76967;DHT22;65904;52.278;20.972;2023-05-10T08:55:26;17.10;48.10
76967;DHT22;65904;52.278;20.972;2023-05-10T08:58:12;17.40;48.00
76967;DHT22;65904;52.278;20.972;2023-05-10T09:00:59;17.60;45.30
76967;DHT22;65904;52.278;20.972;2023-05-10T09:03:46;17.90;43.70
76967;DHT22;65904;52.278;20.972;2023-05-10T09:06:34;18.50;44.00
76967;DHT22;65904;52.278;20.972;2023-05-10T09:09:21;18.80;41.80
76967;DHT22;65904;52.278;20.972;2023-05-10T09:12:10;18.40;40.70
76967;DHT22;65904;52.278;20.972;2023-05-10T09:14:58;18.50;41.60
76967;DHT22;65904;52.278;20.972;2023-05-10T09:17:46;18.00;41.00
76967;DHT22;65904;52.278;20.972;2023-05-10T09:20:33;17.90;44.00
76967;DHT22;65904;52.278;20.972;2023-05-10T09:23:20;18.30;44.30
76967;DHT22;65904;52.278;20.972;2023-05-10T09:26:07;18.70;43.70
76967;DHT22;65904;52.278;20.972;2023-05-10T09:28:54;18.20;40.90
76967;DHT22;65904;52.278;20.972;2023-05-10T09:31:46;18.10;42.50
76967;DHT22;65904;52.278;20.972;2023-05-10T09:34:32;18.00;42.60
76967;DHT22;65904;52.278;20.972;2023-05-10T09:37:19;18.20;41.60
76967;DHT22;65904;52.278;20.972;2023-05-10T09:40:17;18.60;44.90
76967;DHT22;65904;52.278;20.972;2023-05-10T09:43:06;18.50;40.40
76967;DHT22;65904;52.278;20.972;2023-05-10T09:45:52;18.20;40.40
76967;DHT22;65904;52.278;20.972;2023-05-10T09:48:41;18.30;42.60
76967;DHT22;65904;52.278;20.972;2023-05-10T09:51:28;18.20;42.80
76967;DHT22;65904;52.278;20.972;2023-05-10T09:54:15;18.60;43.70
76967;DHT22;65904;52.278;20.972;2023-05-10T09:57:04;19.10;42.40
76967;DHT22;65904;52.278;20.972;2023-05-10T09:59:50;18.60;40.00
76967;DHT22;65904;52.278;20.972;2023-05-10T10:02:39;18.30;40.90
76967;DHT22;65904;52.278;20.972;2023-05-10T10:05:28;18.40;41.00
76967;DHT22;65904;52.278;20.972;2023-05-10T10:08:16;18.60;41.40
76967;DHT22;65904;52.278;20.972;2023-05-10T10:11:02;18.80;43.00
76967;DHT22;65904;52.278;20.972;2023-05-10T10:13:50;19.10;41.10
76967;DHT22;65904;52.278;20.972;2023-05-10T10:16:36;18.60;40.50
76967;DHT22;65904;52.278;20.972;2023-05-10T10:19:22;18.20;40.00
76967;DHT22;65904;52.278;20.972;2023-05-10T10:22:08;18.30;40.90
76967;DHT22;65904;52.278;20.972;2023-05-10T10:24:57;18.90;42.90
76967;DHT22;65904;52.278;20.972;2023-05-10T10:27:49;19.00;39.60
76967;DHT22;65904;52.278;20.972;2023-05-10T10:30:42;19.70;42.50
76967;DHT22;65904;52.278;20.972;2023-05-10T10:33:36;20.50;40.10
76967;DHT22;65904;52.278;20.972;2023-05-10T10:36:25;21.00;40.30
76967;DHT22;65904;52.278;20.972;2023-05-10T10:39:11;20.20;37.70
76967;DHT22;65904;52.278;20.972;2023-05-10T10:41:59;20.60;38.70
76967;DHT22;65904;52.278;20.972;2023-05-10T10:44:45;20.50;37.40
76967;DHT22;65904;52.278;20.972;2023-05-10T10:47:32;21.40;37.90
76967;DHT22;65904;52.278;20.972;2023-05-10T10:50:19;21.90;37.00
76967;DHT22;65904;52.278;20.972;2023-05-10T10:53:10;21.70;36.20
76967;DHT22;65904;52.278;20.972;2023-05-10T10:56:05;21.50;35.80
76967;DHT22;65904;52.278;20.972;2023-05-10T10:58:52;21.80;35.60
76967;DHT22;65904;52.278;20.972;2023-05-10T11:01:41;20.80;35.60
76967;DHT22;65904;52.278;20.972;2023-05-10T11:04:41;21.90;35.90
76967;DHT22;65904;52.278;20.972;2023-05-10T11:07:28;22.40;33.80
76967;DHT22;65904;52.278;20.972;2023-05-10T11:10:19;23.10;35.30
76967;DHT22;65904;52.278;20.972;2023-05-10T11:13:06;24.20;33.10
76967;DHT22;65904;52.278;20.972;2023-05-10T11:15:53;24.50;32.80
76967;DHT22;65904;52.278;20.972;2023-05-10T11:19:01;22.50;31.50
76967;DHT22;65904;52.278;20.972;2023-05-10T11:21:50;23.70;32.80
76967;DHT22;65904;52.278;20.972;2023-05-10T11:24:37;21.70;33.20
76967;DHT22;65904;52.278;20.972;2023-05-10T11:27:23;23.40;33.40
76967;DHT22;65904;52.278;20.972;2023-05-10T11:30:10;23.60;32.20
76967;DHT22;65904;52.278;20.972;2023-05-10T11:32:57;23.70;31.90
76967;DHT22;65904;52.278;20.972;2023-05-10T11:35:43;25.20;32.80
76967;DHT22;65904;52.278;20.972;2023-05-10T11:38:32;26.50;30.50
76967;DHT22;65904;52.278;20.972;2023-05-10T11:41:19;25.70;31.70
76967;DHT22;65904;52.278;20.972;2023-05-10T11:44:09;25.90;30.00
76967;DHT22;65904;52.278;20.972;2023-05-10T11:46:58;24.90;30.40
76967;DHT22;65904;52.278;20.972;2023-05-10T11:49:45;24.60;31.90
76967;DHT22;65904;52.278;20.972;2023-05-10T11:52:35;23.30;31.40
76967;DHT22;65904;52.278;20.972;2023-05-10T11:55:23;23.80;32.10
76967;DHT22;65904;52.278;20.972;2023-05-10T11:58:10;24.10;30.90
76967;DHT22;65904;52.278;20.972;2023-05-10T12:00:56;25.60;29.90
76967;DHT22;65904;52.278;20.972;2023-05-10T12:03:42;23.70;30.00
76967;DHT22;65904;52.278;20.972;2023-05-10T12:06:31;23.90;32.30
76967;DHT22;65904;52.278;20.972;2023-05-10T12:09:17;25.80;30.50
76967;DHT22;65904;52.278;20.972;2023-05-10T12:12:04;27.30;30.00
76967;DHT22;65904;52.278;20.972;2023-05-10T12:14:51;28.60;28.60
76967;DHT22;65904;52.278;20.972;2023-05-10T12:17:37;28.20;28.30
76967;DHT22;65904;52.278;20.972;2023-05-10T12:20:24;28.60;28.80
76967;DHT22;65904;52.278;20.972;2023-05-10T12:23:13;28.70;28.60
76967;DHT22;65904;52.278;20.972;2023-05-10T12:26:01;29.00;27.60
76967;DHT22;65904;52.278;20.972;2023-05-10T12:28:49;27.80;27.00
76967;DHT22;65904;52.278;20.972;2023-05-10T12:31:49;28.20;27.40
76967;DHT22;65904;52.278;20.972;2023-05-10T12:34:36;27.90;28.00
76967;DHT22;65904;52.278;20.972;2023-05-10T12:37:24;29.40;27.50
76967;DHT22;65904;52.278;20.972;2023-05-10T12:40:14;28.50;27.00
76967;DHT22;65904;52.278;20.972;2023-05-10T12:43:00;27.70;27.50
76967;DHT22;65904;52.278;20.972;2023-05-10T12:45:47;28.50;27.90
76967;DHT22;65904;52.278;20.972;2023-05-10T12:48:34;28.40;27.80
76967;DHT22;65904;52.278;20.972;2023-05-10T12:51:21;27.50;27.40
76967;DHT22;65904;52.278;20.972;2023-05-10T12:54:07;28.80;27.10
76967;DHT22;65904;52.278;20.972;2023-05-10T12:56:53;29.10;26.20
76967;DHT22;65904;52.278;20.972;2023-05-10T12:59:39;28.20;26.70
76967;DHT22;65904;52.278;20.972;2023-05-10T13:02:26;27.90;26.90
76967;DHT22;65904;52.278;20.972;2023-05-10T13:05:12;25.90;28.30
76967;DHT22;65904;52.278;20.972;2023-05-10T13:07:59;26.50;28.40
76967;DHT22;65904;52.278;20.972;2023-05-10T13:10:45;26.00;28.50
76967;DHT22;65904;52.278;20.972;2023-05-10T13:13:31;26.30;29.60
76967;DHT22;65904;52.278;20.972;2023-05-10T13:16:18;27.30;28.50
76967;DHT22;65904;52.278;20.972;2023-05-10T13:19:07;26.90;28.90
76967;DHT22;65904;52.278;20.972;2023-05-10T13:21:53;26.90;28.50
76967;DHT22;65904;52.278;20.972;2023-05-10T13:24:39;27.60;28.30
76967;DHT22;65904;52.278;20.972;2023-05-10T13:27:25;27.30;28.30
76967;DHT22;65904;52.278;20.972;2023-05-10T13:30:12;27.00;28.60
76967;DHT22;65904;52.278;20.972;2023-05-10T13:32:59;27.20;28.10
76967;DHT22;65904;52.278;20.972;2023-05-10T13:35:47;25.60;29.30
76967;DHT22;65904;52.278;20.972;2023-05-10T13:38:34;27.50;28.20
76967;DHT22;65904;52.278;20.972;2023-05-10T13:41:21;26.00;28.60
76967;DHT22;65904;52.278;20.972;2023-05-10T13:44:08;26.30;29.10
76967;DHT22;65904;52.278;20.972;2023-05-10T13:46:55;27.40;28.80
76967;DHT22;65904;52.278;20.972;2023-05-10T13:49:42;26.30;28.40
76967;DHT22;65904;52.278;20.972;2023-05-10T13:52:30;27.40;28.60
76967;DHT22;65904;52.278;20.972;2023-05-10T13:55:16;27.40;28.50
76967;DHT22;65904;52.278;20.972;2023-05-10T13:58:02;28.30;28.70
76967;DHT22;65904;52.278;20.972;2023-05-10T14:00:49;27.50;27.80
76967;DHT22;65904;52.278;20.972;2023-05-10T14:03:35;25.70;29.00
76967;DHT22;65904;52.278;20.972;2023-05-10T14:06:22;25.90;29.40
76967;DHT22;65904;52.278;20.972;2023-05-10T14:09:09;26.10;29.60
76967;DHT22;65904;52.278;20.972;2023-05-10T14:11:56;26.50;29.00
76967;DHT22;65904;52.278;20.972;2023-05-10T14:14:43;27.00;28.50
76967;DHT22;65904;52.278;20.972;2023-05-10T14:17:30;27.50;28.50
76967;DHT22;65904;52.278;20.972;2023-05-10T14:20:17;26.80;28.60
76967;DHT22;65904;52.278;20.972;2023-05-10T14:23:03;26.10;29.50
76967;DHT22;65904;52.278;20.972;2023-05-10T14:25:51;27.30;29.40
76967;DHT22;65904;52.278;20.972;2023-05-10T14:28:37;29.00;28.80
76967;DHT22;65904;52.278;20.972;2023-05-10T14:31:24;29.90;27.30
76967;DHT22;65904;52.278;20.972;2023-05-10T14:34:10;30.00;26.60
76967;DHT22;65904;52.278;20.972;2023-05-10T14:36:56;28.90;26.60
76967;DHT22;65904;52.278;20.972;2023-05-10T14:39:42;29.00;26.80
76967;DHT22;65904;52.278;20.972;2023-05-10T14:42:30;28.50;26.90
76967;DHT22;65904;52.278;20.972;2023-05-10T14:45:17;27.90;26.70
76967;DHT22;65904;52.278;20.972;2023-05-10T14:48:04;27.20;27.40
76967;DHT22;65904;52.278;20.972;2023-05-10T14:50:50;27.30;28.00
76967;DHT22;65904;52.278;20.972;2023-05-10T14:53:37;26.80;27.50
76967;DHT22;65904;52.278;20.972;2023-05-10T14:56:23;26.10;28.20
76967;DHT22;65904;52.278;20.972;2023-05-10T14:59:12;25.80;28.50
76967;DHT22;65904;52.278;20.972;2023-05-10T15:01:59;27.20;28.10
76967;DHT22;65904;52.278;20.972;2023-05-10T15:04:46;27.90;27.60
76967;DHT22;65904;52.278;20.972;2023-05-10T15:07:32;28.80;26.80
76967;DHT22;65904;52.278;20.972;2023-05-10T15:10:19;29.40;27.60
76967;DHT22;65904;52.278;20.972;2023-05-10T15:13:06;29.10;26.60
76967;DHT22;65904;52.278;20.972;2023-05-10T15:15:54;28.20;27.50
76967;DHT22;65904;52.278;20.972;2023-05-10T15:18:43;28.30;27.40
76967;DHT22;65904;52.278;20.972;2023-05-10T15:21:29;28.20;27.70
76967;DHT22;65904;52.278;20.972;2023-05-10T15:24:19;28.20;26.70
76967;DHT22;65904;52.278;20.972;2023-05-10T15:27:05;28.20;26.80
76967;DHT22;65904;52.278;20.972;2023-05-10T15:29:52;27.80;26.90
76967;DHT22;65904;52.278;20.972;2023-05-10T15:32:40;26.90;27.10
76967;DHT22;65904;52.278;20.972;2023-05-10T15:35:28;26.70;27.80
76967;DHT22;65904;52.278;20.972;2023-05-10T15:38:14;26.60;28.30
76967;DHT22;65904;52.278;20.972;2023-05-10T15:41:00;25.30;28.60
76967;DHT22;65904;52.278;20.972;2023-05-10T15:43:47;25.10;29.20
76967;DHT22;65904;52.278;20.972;2023-05-10T15:46:33;25.70;29.20
76967;DHT22;65904;52.278;20.972;2023-05-10T15:49:24;26.10;29.30
76967;DHT22;65904;52.278;20.972;2023-05-10T15:52:10;26.60;28.70
76967;DHT22;65904;52.278;20.972;2023-05-10T15:54:58;26.50;27.90
76967;DHT22;65904;52.278;20.972;2023-05-10T15:57:46;26.40;28.10
76967;DHT22;65904;52.278;20.972;2023-05-10T16:00:34;26.40;27.80
76967;DHT22;65904;52.278;20.972;2023-05-10T16:03:21;26.70;28.80
76967;DHT22;65904;52.278;20.972;2023-05-10T16:06:10;26.70;28.00
76967;DHT22;65904;52.278;20.972;2023-05-10T16:08:56;26.30;28.70
76967;DHT22;65904;52.278;20.972;2023-05-10T16:11:44;26.70;28.60
76967;DHT22;65904;52.278;20.972;2023-05-10T16:14:30;26.70;27.80
76967;DHT22;65904;52.278;20.972;2023-05-10T16:17:17;26.60;27.60
76967;DHT22;65904;52.278;20.972;2023-05-10T16:20:05;25.70;28.10
76967;DHT22;65904;52.278;20.972;2023-05-10T16:22:55;25.10;28.10
76967;DHT22;65904;52.278;20.972;2023-05-10T16:25:41;24.60;28.50
76967;DHT22;65904;52.278;20.972;2023-05-10T16:28:29;24.50;28.70
76967;DHT22;65904;52.278;20.972;2023-05-10T16:31:15;24.50;28.90
76967;DHT22;65904;52.278;20.972;2023-05-10T16:34:04;24.10;29.10
76967;DHT22;65904;52.278;20.972;2023-05-10T16:36:51;23.40;29.80
76967;DHT22;65904;52.278;20.972;2023-05-10T16:39:39;22.70;30.00
76967;DHT22;65904;52.278;20.972;2023-05-10T16:42:27;22.00;31.60
76967;DHT22;65904;52.278;20.972;2023-05-10T16:45:16;21.90;30.70
76967;DHT22;65904;52.278;20.972;2023-05-10T16:48:02;22.10;31.20
76967;DHT22;65904;52.278;20.972;2023-05-10T16:50:50;22.50;31.00
76967;DHT22;65904;52.278;20.972;2023-05-10T16:53:37;22.00;30.40
76967;DHT22;65904;52.278;20.972;2023-05-10T16:56:24;21.00;30.20
76967;DHT22;65904;52.278;20.972;2023-05-10T16:59:10;20.00;31.40
76967;DHT22;65904;52.278;20.972;2023-05-10T17:01:57;19.30;33.10
76967;DHT22;65904;52.278;20.972;2023-05-10T17:04:43;18.90;34.00
76967;DHT22;65904;52.278;20.972;2023-05-10T17:07:29;18.60;35.40
76967;DHT22;65904;52.278;20.972;2023-05-10T17:10:17;18.50;35.90
76967;DHT22;65904;52.278;20.972;2023-05-10T17:13:05;18.40;35.90
76967;DHT22;65904;52.278;20.972;2023-05-10T17:15:51;18.30;35.70
76967;DHT22;65904;52.278;20.972;2023-05-10T17:18:40;18.10;35.40
76967;DHT22;65904;52.278;20.972;2023-05-10T17:21:29;17.90;35.50
76967;DHT22;65904;52.278;20.972;2023-05-10T17:24:15;17.80;35.40
76967;DHT22;65904;52.278;20.972;2023-05-10T17:27:02;17.60;35.40